createdAt,value
2019-02-17T00:00:05.593Z,57.90
2019-02-17T00:01:05.693Z,57.90
2019-02-17T00:02:06.020Z,57.90
2019-02-17T00:03:05.233Z,58.00
2019-02-17T00:04:05.467Z,58.00
2019-02-17T00:05:10.719Z,58.00
2019-02-17T00:06:10.811Z,57.90
2019-02-17T00:07:05.910Z,57.90
2019-02-17T00:08:04.988Z,57.90
2019-02-17T00:09:05.207Z,57.80
2019-02-17T00:10:05.456Z,57.80
2019-02-17T00:11:08.291Z,58.00
2019-02-17T00:12:05.298Z,58.00
2019-02-17T00:13:05.380Z,57.90
2019-02-17T00:14:07.969Z,57.90
2019-02-17T00:15:08.503Z,58.20
2019-02-17T00:16:05.491Z,58.20
2019-02-17T00:17:10.617Z,58.40
2019-02-17T00:18:08.088Z,58.40
2019-02-17T00:19:05.020Z,58.40
2019-02-17T00:20:08.573Z,58.60
2019-02-17T00:21:05.535Z,58.60
2019-02-17T00:22:08.415Z,58.90
2019-02-17T00:23:08.050Z,59.00
2019-02-17T00:24:07.664Z,59.20
2019-02-17T00:25:05.618Z,59.20
2019-02-17T00:26:05.729Z,59.20
2019-02-17T00:27:05.790Z,59.20
2019-02-17T00:28:04.999Z,59.70
2019-02-17T00:29:05.093Z,59.90
2019-02-17T00:30:05.505Z,59.80
2019-02-17T00:31:08.118Z,59.70
2019-02-17T00:32:07.655Z,59.80
2019-02-17T00:33:05.651Z,59.60
2019-02-17T00:34:08.274Z,59.60
2019-02-17T00:35:05.424Z,59.60
2019-02-17T00:36:05.675Z,59.60
2019-02-17T00:37:08.408Z,59.70
2019-02-17T00:38:05.468Z,59.70
2019-02-17T00:39:05.623Z,59.70
2019-02-17T00:40:05.711Z,59.80
2019-02-17T00:41:08.386Z,60.00
2019-02-17T00:42:07.916Z,60.00
2019-02-17T00:43:10.965Z,60.20
2019-02-17T00:44:07.841Z,60.40
2019-02-17T00:45:08.335Z,60.40
2019-02-17T00:46:05.449Z,60.40
2019-02-17T00:47:05.642Z,60.50
2019-02-17T00:48:05.778Z,60.50
2019-02-17T00:49:05.901Z,60.40
2019-02-17T00:50:05.619Z,60.30
2019-02-17T00:51:05.725Z,60.50
2019-02-17T00:52:08.309Z,60.60
2019-02-17T00:53:12.934Z,60.80
2019-02-17T00:54:08.562Z,60.90
2019-02-17T00:55:07.827Z,61.40
2019-02-17T00:56:08.289Z,61.60
2019-02-17T00:57:07.760Z,62.00
2019-02-17T00:58:08.407Z,61.70
2019-02-17T00:59:10.672Z,61.70
2019-02-17T01:00:05.835Z,61.80
2019-02-17T01:01:05.933Z,62.10
2019-02-17T01:02:05.081Z,62.30
2019-02-17T01:03:07.841Z,62.40
2019-02-17T01:04:05.870Z,62.40
2019-02-17T01:05:04.992Z,62.40
2019-02-17T01:06:07.784Z,62.20
2019-02-17T01:07:05.847Z,62.20
2019-02-17T01:08:08.583Z,62.40
2019-02-17T01:09:08.068Z,62.70
2019-02-17T01:10:05.586Z,62.60
2019-02-17T01:11:05.809Z,62.70
2019-02-17T01:12:11.114Z,62.90
2019-02-17T01:13:07.588Z,62.70
2019-02-17T01:14:05.613Z,62.70
2019-02-17T01:15:05.741Z,62.80
2019-02-17T01:16:08.293Z,63.20
2019-02-17T01:17:07.840Z,63.30
2019-02-17T01:18:05.855Z,63.30
2019-02-17T01:19:05.903Z,63.80
2019-02-17T01:20:04.943Z,63.70
2019-02-17T01:21:10.157Z,63.40
2019-02-17T01:22:05.271Z,63.40
2019-02-17T01:23:05.494Z,63.30
2019-02-17T01:24:05.754Z,63.10
2019-02-17T01:25:05.939Z,63.00
2019-02-17T01:26:05.056Z,63.10
2019-02-17T01:27:05.144Z,63.10
2019-02-17T01:28:05.221Z,63.20
2019-02-17T01:29:05.324Z,63.10
2019-02-17T01:30:05.552Z,63.00
2019-02-17T01:31:05.699Z,63.00
2019-02-17T01:32:08.366Z,63.40
2019-02-17T01:33:07.858Z,63.30
2019-02-17T01:34:05.865Z,63.30
2019-02-17T01:35:04.991Z,63.20
2019-02-17T01:36:07.751Z,63.10
2019-02-17T01:37:08.278Z,62.90
2019-02-17T01:38:07.769Z,63.10
2019-02-17T01:39:10.974Z,63.00
2019-02-17T01:40:07.575Z,63.10
2019-02-17T01:41:08.153Z,63.20
2019-02-17T01:42:05.169Z,63.20
2019-02-17T01:43:05.335Z,63.00
2019-02-17T01:44:08.003Z,62.90
2019-02-17T01:45:05.025Z,62.80
2019-02-17T01:46:05.152Z,62.80
2019-02-17T01:47:05.305Z,62.80
2019-02-17T01:48:05.605Z,62.70
2019-02-17T01:49:05.802Z,62.70
2019-02-17T01:50:05.939Z,62.70
2019-02-17T01:51:05.060Z,62.60
2019-02-17T01:52:05.392Z,62.60
2019-02-17T01:53:05.662Z,62.50
2019-02-17T01:54:08.433Z,62.70
2019-02-17T01:55:05.474Z,62.70
2019-02-17T01:56:05.554Z,62.90
2019-02-17T01:57:05.711Z,62.80
2019-02-17T01:58:05.941Z,62.80
2019-02-17T01:59:05.154Z,62.80
2019-02-17T02:00:05.298Z,62.80
2019-02-17T02:01:07.908Z,62.70
2019-02-17T02:02:05.958Z,62.90
2019-02-17T02:03:07.588Z,63.10
2019-02-17T02:04:08.175Z,63.20
2019-02-17T02:05:05.140Z,63.20
2019-02-17T02:06:05.172Z,63.20
2019-02-17T02:07:05.318Z,63.30
2019-02-17T02:08:08.002Z,63.40
2019-02-17T02:09:05.051Z,63.40
2019-02-17T02:10:05.147Z,63.50
2019-02-17T02:11:05.206Z,64.30
2019-02-17T02:12:07.835Z,63.80
2019-02-17T02:13:08.306Z,63.60
2019-02-17T02:14:06.856Z,63.60
2019-02-17T02:15:07.608Z,63.40
2019-02-17T02:16:05.670Z,63.40
2019-02-17T02:17:05.796Z,63.40
2019-02-17T02:18:06.037Z,63.40
2019-02-17T02:19:05.336Z,63.30
2019-02-17T02:20:05.066Z,63.60
2019-02-17T02:21:07.693Z,63.60
2019-02-17T02:22:05.732Z,63.50
2019-02-17T02:23:05.828Z,63.60
2019-02-17T02:24:05.996Z,63.60
2019-02-17T02:25:07.657Z,63.60
2019-02-17T02:26:08.281Z,63.60
2019-02-17T02:27:07.844Z,63.60
2019-02-17T02:28:05.826Z,63.50
2019-02-17T02:29:06.021Z,63.60
2019-02-17T02:30:06.016Z,63.60
2019-02-17T02:31:05.776Z,63.50
2019-02-17T02:32:05.910Z,63.40
2019-02-17T02:33:05.054Z,63.40
2019-02-17T02:34:05.280Z,63.40
2019-02-17T02:35:05.469Z,63.50
2019-02-17T02:36:08.197Z,63.70
2019-02-17T02:37:05.179Z,63.60
2019-02-17T02:38:07.982Z,63.80
2019-02-17T02:39:05.094Z,63.80
2019-02-17T02:40:07.830Z,63.90
2019-02-17T02:41:05.877Z,63.90
2019-02-17T02:42:10.122Z,64.10
2019-02-17T02:43:07.640Z,64.50
2019-02-17T02:44:05.565Z,64.40
2019-02-17T02:45:05.658Z,64.50
2019-02-17T02:46:05.750Z,64.60
2019-02-17T02:47:05.899Z,64.60
2019-02-17T02:48:05.004Z,64.40
2019-02-17T02:49:05.448Z,64.50
2019-02-17T02:50:05.648Z,64.30
2019-02-17T02:51:05.799Z,64.30
2019-02-17T02:52:08.420Z,64.30
2019-02-17T02:53:05.409Z,64.20
2019-02-17T02:54:05.507Z,64.20
2019-02-17T02:55:10.850Z,64.10
2019-02-17T02:56:05.966Z,64.10
2019-02-17T02:57:05.115Z,64.10
2019-02-17T02:58:05.244Z,64.40
2019-02-17T02:59:05.330Z,64.10
2019-02-17T03:00:08.033Z,64.10
2019-02-17T03:01:05.014Z,64.10
2019-02-17T03:02:05.037Z,64.10
2019-02-17T03:03:07.635Z,64.10
2019-02-17T03:04:05.629Z,64.10
2019-02-17T03:05:05.871Z,64.10
2019-02-17T03:06:05.016Z,64.20
2019-02-17T03:07:05.105Z,64.40
2019-02-17T03:08:05.205Z,64.60
2019-02-17T03:09:05.258Z,65.00
2019-02-17T03:10:05.368Z,65.20
2019-02-17T03:11:08.040Z,65.80
2019-02-17T03:12:05.220Z,65.80
2019-02-17T03:13:05.404Z,65.60
2019-02-17T03:14:05.454Z,65.60
2019-02-17T03:15:08.178Z,65.50
2019-02-17T03:16:05.306Z,65.30
2019-02-17T03:17:05.475Z,65.20
2019-02-17T03:18:07.969Z,65.20
2019-02-17T03:19:05.027Z,65.20
2019-02-17T03:20:05.130Z,65.10
2019-02-17T03:21:05.361Z,65.10
2019-02-17T03:22:08.110Z,65.30
2019-02-17T03:23:05.243Z,65.20
2019-02-17T03:24:05.527Z,65.20
2019-02-17T03:25:05.698Z,65.30
2019-02-17T03:26:05.991Z,65.50
2019-02-17T03:27:05.122Z,65.60
2019-02-17T03:28:07.786Z,65.60
2019-02-17T03:29:05.756Z,65.60
2019-02-17T03:30:06.570Z,65.50
2019-02-17T03:31:08.259Z,65.60
2019-02-17T03:32:07.821Z,65.50
2019-02-17T03:33:05.898Z,65.60
2019-02-17T03:34:05.000Z,65.50
2019-02-17T03:35:05.055Z,65.50
2019-02-17T03:36:07.745Z,65.70
2019-02-17T03:37:05.778Z,65.70
2019-02-17T03:38:05.853Z,65.80
2019-02-17T03:39:05.940Z,66.00
2019-02-17T03:40:05.185Z,66.20
2019-02-17T03:41:05.329Z,66.50
2019-02-17T03:42:05.566Z,66.60
2019-02-17T03:43:05.751Z,67.30
2019-02-17T03:44:08.375Z,67.60
2019-02-17T03:45:05.309Z,67.70
2019-02-17T03:46:07.905Z,67.40
2019-02-17T03:47:05.813Z,67.40
2019-02-17T03:48:05.902Z,67.20
2019-02-17T03:49:04.976Z,67.30
2019-02-17T03:50:05.008Z,67.30
2019-02-17T03:51:07.630Z,67.10
2019-02-17T03:52:05.545Z,67.10
2019-02-17T03:53:05.612Z,67.00
2019-02-17T03:54:05.771Z,67.00
2019-02-17T03:55:08.393Z,67.10
2019-02-17T03:56:05.470Z,67.00
2019-02-17T03:57:08.005Z,67.10
2019-02-17T03:58:08.639Z,67.20
2019-02-17T03:59:05.587Z,67.20
2019-02-17T04:00:17.504Z,67.10
2019-02-17T04:01:08.311Z,67.30
2019-02-17T04:02:05.382Z,67.30
2019-02-17T04:03:08.135Z,67.10
2019-02-17T04:04:07.596Z,67.20
2019-02-17T04:05:05.567Z,67.00
2019-02-17T04:06:05.690Z,67.10
2019-02-17T04:07:05.793Z,67.10
2019-02-17T04:08:05.891Z,67.20
2019-02-17T04:09:04.994Z,67.20
2019-02-17T04:10:05.106Z,67.30
2019-02-17T04:11:08.014Z,67.70
2019-02-17T04:12:10.197Z,67.70
2019-02-17T04:13:05.294Z,67.70
2019-02-17T04:14:05.539Z,67.70
2019-02-17T04:15:05.781Z,67.70
2019-02-17T04:16:06.054Z,67.70
2019-02-17T04:17:05.112Z,67.60
2019-02-17T04:18:05.208Z,67.50
2019-02-17T04:19:07.835Z,67.50
2019-02-17T04:20:05.878Z,67.50
2019-02-17T04:21:04.968Z,67.50
2019-02-17T04:22:05.236Z,67.50
2019-02-17T04:23:05.405Z,67.50
2019-02-17T04:24:05.736Z,67.50
2019-02-17T04:25:05.950Z,67.80
2019-02-17T04:26:05.089Z,67.70
2019-02-17T04:27:05.240Z,67.80
2019-02-17T04:28:05.315Z,68.40
2019-02-17T04:29:05.508Z,68.90
2019-02-17T04:30:08.110Z,69.70
2019-02-17T04:31:05.079Z,69.70
2019-02-17T04:32:05.274Z,69.70
2019-02-17T04:33:05.347Z,69.50
2019-02-17T04:34:05.587Z,69.50
2019-02-17T04:35:05.774Z,69.40
2019-02-17T04:36:06.058Z,69.30
2019-02-17T04:37:05.361Z,69.30
2019-02-17T04:38:08.026Z,69.10
2019-02-17T04:39:07.522Z,69.20
2019-02-17T04:40:05.444Z,69.00
2019-02-17T04:41:05.602Z,69.20
2019-02-17T04:42:08.251Z,69.10
2019-02-17T04:43:05.318Z,69.10
2019-02-17T04:44:05.436Z,69.10
2019-02-17T04:45:08.034Z,69.30
2019-02-17T04:46:12.662Z,69.30
2019-02-17T04:47:08.291Z,69.40
2019-02-17T04:48:05.370Z,69.40
2019-02-17T04:49:05.483Z,69.40
2019-02-17T04:50:05.078Z,69.40
2019-02-17T04:51:07.800Z,69.50
2019-02-17T04:52:08.474Z,69.50
2019-02-17T04:53:05.596Z,69.50
2019-02-17T04:54:05.722Z,69.60
2019-02-17T04:55:05.872Z,69.60
2019-02-17T04:56:05.025Z,69.50
2019-02-17T04:57:05.228Z,69.50
2019-02-17T04:58:05.530Z,69.40
2019-02-17T04:59:05.773Z,69.30
2019-02-17T05:00:06.045Z,69.30
2019-02-17T05:01:05.124Z,69.80
2019-02-17T05:02:05.274Z,69.80
2019-02-17T05:03:05.354Z,69.80
2019-02-17T05:04:05.387Z,69.90
2019-02-17T05:05:08.023Z,70.10
2019-02-17T05:06:07.464Z,70.10
2019-02-17T05:07:05.397Z,70.00
2019-02-17T05:08:10.676Z,69.90
2019-02-17T05:09:05.880Z,70.00
2019-02-17T05:10:05.024Z,70.00
2019-02-17T05:11:05.112Z,70.00
2019-02-17T05:12:07.720Z,70.10
2019-02-17T05:13:05.949Z,70.10
2019-02-17T05:14:05.080Z,70.40
2019-02-17T05:15:05.141Z,70.80
2019-02-17T05:16:05.365Z,70.90
2019-02-17T05:17:08.143Z,71.30
2019-02-17T05:18:05.274Z,71.30
2019-02-17T05:19:05.435Z,71.80
2019-02-17T05:20:05.561Z,72.00
2019-02-17T05:21:05.809Z,72.00
2019-02-17T05:22:05.931Z,72.20
2019-02-17T05:23:05.030Z,72.20
2019-02-17T05:24:07.799Z,72.30
2019-02-17T05:25:08.899Z,72.30
2019-02-17T05:26:05.953Z,72.30
2019-02-17T05:27:05.099Z,72.20
2019-02-17T05:28:05.408Z,72.20
2019-02-17T05:29:05.600Z,72.10
2019-02-17T05:30:10.755Z,72.10
2019-02-17T05:31:08.381Z,72.10
2019-02-17T05:32:07.969Z,71.90
2019-02-17T05:33:05.031Z,71.90
2019-02-17T05:34:05.531Z,71.80
2019-02-17T05:35:05.788Z,71.90
2019-02-17T05:36:08.443Z,71.80
2019-02-17T05:37:05.425Z,71.80
2019-02-17T05:38:05.525Z,71.80
2019-02-17T05:39:08.189Z,72.10
2019-02-17T05:40:05.343Z,72.10
2019-02-17T05:41:08.319Z,72.20
2019-02-17T05:42:05.245Z,72.30
2019-02-17T05:43:07.841Z,72.50
2019-02-17T05:44:05.835Z,72.50
2019-02-17T05:45:05.057Z,72.60
2019-02-17T05:46:05.178Z,72.50
2019-02-17T05:47:13.959Z,72.70
2019-02-17T05:48:05.784Z,72.70
2019-02-17T05:49:05.836Z,72.70
2019-02-17T05:50:08.448Z,73.20
2019-02-17T05:51:07.942Z,73.40
2019-02-17T05:52:05.954Z,73.40
2019-02-17T05:53:07.627Z,73.70
2019-02-17T05:54:05.659Z,73.80
2019-02-17T05:55:08.218Z,73.90
2019-02-17T05:56:05.149Z,73.80
2019-02-17T05:57:05.208Z,74.00
2019-02-17T05:58:10.565Z,74.40
2019-02-17T05:59:10.658Z,74.40
2019-02-17T06:00:08.242Z,74.50
2019-02-17T06:01:07.682Z,74.50
2019-02-17T06:02:05.893Z,68.10
2019-02-17T06:03:05.130Z,74.70
2019-02-17T06:04:05.395Z,74.70
2019-02-17T06:05:08.069Z,75.00
2019-02-17T06:06:05.138Z,75.00
2019-02-17T06:07:05.324Z,75.20
2019-02-17T06:08:05.462Z,75.20
2019-02-17T06:09:05.575Z,75.40
2019-02-17T06:10:08.239Z,75.60
2019-02-17T06:11:05.180Z,75.50
2019-02-17T06:12:05.289Z,75.70
2019-02-17T06:13:05.365Z,75.70
2019-02-17T06:14:10.637Z,75.80
2019-02-17T06:15:05.703Z,75.70
2019-02-17T06:16:08.382Z,75.80
2019-02-17T06:17:05.534Z,75.80
2019-02-17T06:18:05.791Z,75.80
2019-02-17T06:19:06.067Z,75.80
2019-02-17T06:20:05.183Z,75.80
2019-02-17T06:21:05.395Z,75.90
2019-02-17T06:22:05.579Z,75.90
2019-02-17T06:23:08.365Z,75.90
2019-02-17T06:24:05.393Z,75.90
2019-02-17T06:25:08.206Z,75.90
2019-02-17T06:26:05.317Z,75.90
2019-02-17T06:27:08.026Z,76.10
2019-02-17T06:28:05.295Z,76.10
2019-02-17T06:29:08.053Z,76.10
2019-02-17T06:30:08.390Z,76.10
2019-02-17T06:31:14.838Z,76.10
2019-02-17T06:32:10.243Z,76.10
2019-02-17T06:33:07.793Z,76.10
2019-02-17T06:34:08.243Z,76.40
2019-02-17T06:35:05.285Z,76.40
2019-02-17T06:36:07.957Z,76.30
2019-02-17T06:37:05.037Z,76.30
2019-02-17T06:38:05.185Z,76.20
2019-02-17T06:39:05.249Z,76.20
2019-02-17T06:40:10.494Z,76.20
2019-02-17T06:41:05.541Z,76.20
2019-02-17T06:42:08.197Z,76.30
2019-02-17T06:43:05.196Z,73.00
2019-02-17T06:44:05.282Z,76.30
2019-02-17T06:45:05.518Z,76.40
2019-02-17T06:46:05.668Z,76.60
2019-02-17T06:47:05.778Z,76.70
2019-02-17T06:48:06.071Z,76.70
2019-02-17T06:49:07.718Z,76.90
2019-02-17T06:50:08.243Z,77.00
2019-02-17T06:51:05.295Z,76.90
2019-02-17T06:52:05.561Z,77.10
2019-02-17T06:53:05.789Z,77.20
2019-02-17T06:54:06.096Z,77.10
2019-02-17T06:55:05.382Z,77.20
2019-02-17T06:56:09.553Z,77.30
2019-02-17T06:57:08.129Z,77.30
2019-02-17T06:58:05.173Z,77.30
2019-02-17T06:59:10.972Z,77.50
2019-02-17T07:00:05.023Z,77.50
2019-02-17T07:01:05.225Z,77.40
2019-02-17T07:02:05.390Z,77.30
2019-02-17T07:03:05.623Z,77.30
2019-02-17T07:04:05.921Z,77.30
2019-02-17T07:05:05.341Z,77.20
2019-02-17T07:06:05.661Z,77.30
2019-02-17T07:07:05.862Z,77.30
2019-02-17T07:08:08.503Z,77.20
2019-02-17T07:09:05.500Z,77.20
2019-02-17T07:10:05.634Z,77.10
2019-02-17T07:11:05.729Z,77.00
2019-02-17T07:12:05.876Z,77.00
2019-02-17T07:13:08.634Z,77.00
2019-02-17T07:14:08.227Z,77.00
2019-02-17T07:15:05.274Z,77.00
2019-02-17T07:16:08.038Z,77.50
2019-02-17T07:17:05.117Z,77.50
2019-02-17T07:18:07.841Z,78.50
2019-02-17T07:19:05.925Z,78.50
2019-02-17T07:20:10.139Z,79.00
2019-02-17T07:21:07.719Z,79.10
2019-02-17T07:22:05.726Z,79.10
2019-02-17T07:23:05.972Z,79.30
2019-02-17T07:24:05.222Z,79.50
2019-02-17T07:25:05.319Z,79.50
2019-02-17T07:26:05.400Z,79.50
2019-02-17T07:27:08.032Z,79.20
2019-02-17T07:28:05.033Z,79.20
2019-02-17T07:29:05.118Z,79.00
2019-02-17T07:30:08.268Z,78.70
2019-02-17T07:31:05.265Z,78.70
2019-02-17T07:32:05.587Z,78.60
2019-02-17T07:33:05.805Z,78.50
2019-02-17T07:34:07.690Z,78.30
2019-02-17T07:35:08.428Z,78.10
2019-02-17T07:36:05.507Z,78.00
2019-02-17T07:37:10.802Z,77.60
2019-02-17T07:38:08.433Z,77.50
2019-02-17T07:39:07.893Z,77.30
2019-02-17T07:40:08.358Z,77.20
2019-02-17T07:41:07.860Z,77.10
2019-02-17T07:42:05.812Z,77.10
2019-02-17T07:43:08.532Z,76.90
2019-02-17T07:44:05.493Z,76.90
2019-02-17T07:45:05.673Z,76.90
2019-02-17T07:46:08.319Z,76.40
2019-02-17T07:47:07.830Z,76.40
2019-02-17T07:48:05.784Z,76.40
2019-02-17T07:49:05.993Z,76.30
2019-02-17T07:50:05.580Z,76.30
2019-02-17T07:51:05.685Z,76.10
2019-02-17T07:52:08.324Z,75.90
2019-02-17T07:53:05.436Z,75.90
2019-02-17T07:54:05.570Z,75.80
2019-02-17T07:55:05.713Z,75.70
2019-02-17T07:56:08.356Z,75.30
2019-02-17T07:57:05.342Z,75.30
2019-02-17T07:58:05.566Z,75.30
2019-02-17T07:59:05.687Z,75.00
2019-02-17T08:00:05.795Z,74.80
2019-02-17T08:01:07.734Z,74.60
2019-02-17T08:02:08.685Z,74.30
2019-02-17T08:03:05.770Z,74.30
2019-02-17T08:04:05.880Z,74.00
2019-02-17T08:05:05.056Z,73.80
2019-02-17T08:06:07.737Z,73.10
2019-02-17T08:07:08.395Z,72.90
2019-02-17T08:08:05.421Z,72.90
2019-02-17T08:09:05.513Z,72.60
2019-02-17T08:10:05.654Z,72.10
2019-02-17T08:11:05.748Z,71.90
2019-02-17T08:12:05.833Z,71.50
2019-02-17T08:13:08.528Z,70.90
2019-02-17T08:14:08.193Z,70.60
2019-02-17T08:15:07.676Z,70.70
2019-02-17T08:16:05.751Z,70.30
2019-02-17T08:17:08.409Z,69.70
2019-02-17T08:18:05.482Z,69.80
2019-02-17T08:19:05.620Z,69.10
2019-02-17T08:20:08.273Z,68.90
2019-02-17T08:21:13.040Z,68.70
2019-02-17T08:22:05.040Z,68.70
2019-02-17T08:23:05.328Z,68.30
2019-02-17T08:24:05.476Z,68.00
2019-02-17T08:25:05.525Z,67.80
2019-02-17T08:26:05.609Z,67.40
2019-02-17T08:27:05.831Z,67.30
2019-02-17T08:28:08.542Z,66.00
2019-02-17T08:29:05.663Z,65.90
2019-02-17T08:30:05.018Z,65.40
2019-02-17T08:31:07.690Z,65.10
2019-02-17T08:32:05.878Z,65.10
2019-02-17T08:33:05.040Z,65.00
2019-02-17T08:34:05.234Z,64.90
2019-02-17T08:35:05.473Z,65.10
2019-02-17T08:36:08.243Z,64.70
2019-02-17T08:37:07.795Z,64.70
2019-02-17T08:38:08.389Z,64.50
2019-02-17T08:39:05.439Z,64.50
2019-02-17T08:40:08.200Z,64.50
2019-02-17T08:41:05.272Z,64.40
2019-02-17T08:42:08.093Z,63.50
2019-02-17T08:43:07.822Z,63.40
2019-02-17T08:44:05.842Z,63.40
2019-02-17T08:45:06.111Z,63.30
2019-02-17T08:46:05.389Z,63.20
2019-02-17T08:47:13.246Z,62.80
2019-02-17T08:48:07.708Z,62.70
2019-02-17T08:49:08.264Z,62.30
2019-02-17T08:50:05.311Z,62.20
2019-02-17T08:51:05.533Z,62.10
2019-02-17T08:52:08.282Z,61.60
2019-02-17T08:53:07.817Z,61.50
2019-02-17T08:54:05.919Z,61.50
2019-02-17T08:55:05.172Z,61.50
2019-02-17T08:56:05.406Z,61.20
2019-02-17T08:57:05.542Z,61.10
2019-02-17T08:58:05.856Z,61.00
2019-02-17T08:59:05.034Z,61.10
2019-02-17T09:00:05.335Z,61.10
2019-02-17T09:01:05.484Z,61.10
2019-02-17T09:02:06.669Z,61.10
2019-02-17T09:03:08.252Z,61.00
2019-02-17T09:04:07.847Z,61.00
2019-02-17T09:05:05.856Z,61.00
2019-02-17T09:06:05.937Z,60.90
2019-02-17T09:07:06.859Z,60.80
2019-02-17T09:08:05.108Z,60.70
2019-02-17T09:09:07.829Z,60.90
2019-02-17T09:10:05.853Z,60.90
2019-02-17T09:11:05.993Z,60.90
2019-02-17T09:12:10.169Z,60.70
2019-02-17T09:13:05.198Z,60.70
2019-02-17T09:14:05.316Z,60.70
2019-02-17T09:15:05.446Z,60.70
2019-02-17T09:16:05.654Z,60.50
2019-02-17T09:17:10.947Z,60.10
2019-02-17T09:18:05.981Z,60.10
2019-02-17T09:19:07.734Z,60.10
2019-02-17T09:20:08.342Z,60.00
2019-02-17T09:21:05.542Z,60.00
2019-02-17T09:22:05.848Z,59.90
2019-02-17T09:23:05.078Z,59.80
2019-02-17T09:24:05.247Z,59.80
2019-02-17T09:25:05.453Z,59.50
2019-02-17T09:26:08.170Z,59.10
2019-02-17T09:27:07.716Z,59.20
2019-02-17T09:28:08.313Z,58.80
2019-02-17T09:29:05.310Z,58.80
2019-02-17T09:30:05.410Z,58.70
2019-02-17T09:31:05.599Z,58.50
2019-02-17T09:32:16.842Z,58.40
2019-02-17T09:33:06.009Z,58.50
2019-02-17T09:34:07.693Z,58.40
2019-02-17T09:35:10.818Z,58.20
2019-02-17T09:36:05.912Z,58.20
2019-02-17T09:37:05.010Z,58.10
2019-02-17T09:38:05.338Z,58.10
2019-02-17T09:39:05.406Z,58.20
2019-02-17T09:40:05.681Z,58.10
2019-02-17T09:41:05.951Z,57.90
2019-02-17T09:42:07.669Z,57.60
2019-02-17T09:43:05.694Z,57.60
2019-02-17T09:44:08.315Z,57.60
2019-02-17T09:45:07.749Z,57.60
2019-02-17T09:46:05.786Z,57.60
2019-02-17T09:47:08.476Z,57.60
2019-02-17T09:48:05.561Z,57.60
2019-02-17T09:49:05.944Z,57.50
2019-02-17T09:50:05.159Z,57.30
2019-02-17T09:51:08.185Z,57.30
2019-02-17T09:52:07.888Z,57.30
2019-02-17T09:53:06.015Z,57.30
2019-02-17T09:54:05.457Z,57.20
2019-02-17T09:55:05.600Z,57.20
2019-02-17T09:56:08.354Z,57.00
2019-02-17T09:57:05.475Z,56.90
2019-02-17T09:58:08.191Z,56.30
2019-02-17T09:59:12.938Z,56.30
2019-02-17T10:00:05.983Z,56.30
2019-02-17T10:01:05.202Z,56.20
2019-02-17T10:02:07.746Z,56.20
2019-02-17T10:03:05.852Z,56.20
2019-02-17T10:04:05.178Z,56.00
2019-02-17T10:05:07.878Z,55.80
2019-02-17T10:06:08.464Z,55.90
2019-02-17T10:07:05.522Z,55.90
2019-02-17T10:08:05.627Z,55.90
2019-02-17T10:09:08.320Z,55.50
2019-02-17T10:10:07.975Z,55.30
2019-02-17T10:11:05.161Z,55.20
2019-02-17T10:12:07.941Z,55.10
2019-02-17T10:13:05.038Z,55.10
2019-02-17T10:14:05.217Z,54.90
2019-02-17T10:15:07.962Z,54.60
2019-02-17T10:16:04.966Z,54.70
2019-02-17T10:17:07.740Z,54.60
2019-02-17T10:18:08.410Z,54.50
2019-02-17T10:19:05.430Z,54.50
2019-02-17T10:20:08.165Z,54.20
2019-02-17T10:21:05.231Z,54.20
2019-02-17T10:22:05.416Z,54.10
2019-02-17T10:23:08.065Z,53.60
2019-02-17T10:24:05.107Z,53.50
2019-02-17T10:25:05.264Z,53.40
2019-02-17T10:26:05.504Z,53.00
2019-02-17T10:27:05.660Z,52.40
2019-02-17T10:28:05.832Z,52.30
2019-02-17T10:29:06.005Z,52.30
2019-02-17T10:30:07.681Z,52.50
2019-02-17T10:31:08.203Z,52.50
2019-02-17T10:32:07.707Z,52.50
2019-02-17T10:33:08.310Z,52.60
2019-02-17T10:34:05.299Z,52.50
2019-02-17T10:35:05.410Z,52.30
2019-02-17T10:36:08.153Z,52.10
2019-02-17T10:37:05.162Z,52.10
2019-02-17T10:38:05.893Z,51.90
2019-02-17T10:39:07.504Z,51.60
2019-02-17T10:40:07.962Z,51.40
2019-02-17T10:41:05.903Z,51.40
2019-02-17T10:42:07.605Z,51.20
2019-02-17T10:43:05.573Z,51.30
2019-02-17T10:44:05.935Z,50.90
2019-02-17T10:45:10.305Z,50.70
2019-02-17T10:46:06.551Z,50.60
2019-02-17T10:47:08.330Z,50.40
2019-02-17T10:48:05.491Z,50.40
2019-02-17T10:49:05.732Z,50.20
2019-02-17T10:50:05.901Z,50.30
2019-02-17T10:51:04.978Z,50.20
2019-02-17T10:52:07.636Z,50.00
2019-02-17T10:53:05.714Z,50.10
2019-02-17T10:54:05.927Z,49.80
2019-02-17T10:55:05.046Z,49.20
2019-02-17T10:56:05.188Z,48.60
2019-02-17T10:57:07.823Z,49.00
2019-02-17T10:58:08.397Z,48.90
2019-02-17T10:59:05.469Z,48.90
2019-02-17T11:00:05.642Z,48.90
2019-02-17T11:01:05.801Z,48.30
2019-02-17T11:02:05.995Z,48.00
2019-02-17T11:03:05.108Z,48.00
2019-02-17T11:04:05.212Z,48.10
2019-02-17T11:05:05.368Z,48.20
2019-02-17T11:06:05.404Z,48.10
2019-02-17T11:07:05.609Z,47.20
2019-02-17T11:08:08.330Z,47.50
2019-02-17T11:09:05.325Z,47.50
2019-02-17T11:10:07.986Z,47.90
2019-02-17T11:11:05.067Z,47.90
2019-02-17T11:12:05.233Z,48.00
2019-02-17T11:13:05.520Z,48.20
2019-02-17T11:14:08.278Z,48.40
2019-02-17T11:15:05.302Z,48.40
2019-02-17T11:16:05.432Z,48.60
2019-02-17T11:17:08.047Z,48.60
2019-02-17T11:18:05.077Z,48.60
2019-02-17T11:19:05.134Z,48.50
2019-02-17T11:20:07.967Z,48.20
2019-02-17T11:21:05.974Z,48.20
2019-02-17T11:22:07.771Z,48.30
2019-02-17T11:23:08.391Z,48.50
2019-02-17T11:24:05.467Z,48.50
2019-02-17T11:25:05.734Z,48.60
2019-02-17T11:26:05.865Z,48.60
2019-02-17T11:27:05.100Z,48.70
2019-02-17T11:28:10.442Z,48.70
2019-02-17T11:29:08.010Z,48.60
2019-02-17T11:30:05.980Z,48.60
2019-02-17T11:31:05.234Z,48.60
2019-02-17T11:32:05.517Z,48.60
2019-02-17T11:33:05.655Z,48.60
2019-02-17T11:34:05.734Z,48.70
2019-02-17T11:35:11.076Z,48.60
2019-02-17T11:36:07.778Z,48.40
2019-02-17T11:37:08.544Z,48.50
2019-02-17T11:38:10.586Z,48.40
2019-02-17T11:39:05.533Z,48.40
2019-02-17T11:40:05.644Z,48.50
2019-02-17T11:41:05.959Z,48.70
2019-02-17T11:42:05.068Z,48.60
2019-02-17T11:43:05.326Z,48.70
2019-02-17T11:44:05.449Z,48.50
2019-02-17T11:45:05.635Z,48.60
2019-02-17T11:46:05.830Z,48.80
2019-02-17T11:47:07.837Z,48.80
2019-02-17T11:48:05.104Z,48.70
2019-02-17T11:49:05.404Z,48.60
2019-02-17T11:50:08.108Z,48.60
2019-02-17T11:51:05.093Z,48.60
2019-02-17T11:52:05.285Z,48.40
2019-02-17T11:53:05.781Z,48.30
2019-02-17T11:54:05.996Z,47.80
2019-02-17T11:55:05.227Z,48.00
2019-02-17T11:56:10.471Z,47.80
2019-02-17T11:57:05.480Z,47.80
2019-02-17T11:58:05.596Z,47.60
2019-02-17T11:59:05.743Z,47.30
2019-02-17T12:00:05.836Z,46.80
2019-02-17T12:01:05.920Z,46.70
2019-02-17T12:02:05.030Z,46.40
2019-02-17T12:03:08.655Z,46.10
2019-02-17T12:04:08.605Z,45.00
2019-02-17T12:05:08.227Z,44.70
2019-02-17T12:06:05.343Z,44.70
2019-02-17T12:07:05.570Z,44.80
2019-02-17T12:08:10.761Z,44.70
2019-02-17T12:09:05.777Z,44.80
2019-02-17T12:10:05.917Z,44.70
2019-02-17T12:11:05.020Z,43.10
2019-02-17T12:12:05.114Z,42.00
2019-02-17T12:13:05.734Z,42.10
2019-02-17T12:14:08.459Z,42.50
2019-02-17T12:15:05.626Z,42.50
2019-02-17T12:16:10.883Z,42.70
2019-02-17T12:17:05.949Z,42.70
2019-02-17T12:18:05.281Z,42.50
2019-02-17T12:19:05.594Z,40.50
2019-02-17T12:20:05.768Z,40.50
2019-02-17T12:21:05.958Z,37.90
2019-02-17T12:22:07.665Z,39.40
2019-02-17T12:23:05.683Z,39.50
2019-02-17T12:24:08.317Z,40.00
2019-02-17T12:25:05.386Z,40.00
2019-02-17T12:26:08.027Z,39.50
2019-02-17T12:27:05.082Z,39.60
2019-02-17T12:28:07.731Z,39.40
2019-02-17T12:29:10.768Z,39.40
2019-02-17T12:30:05.944Z,38.60
2019-02-17T12:31:07.594Z,38.00
2019-02-17T12:32:05.628Z,37.80
2019-02-17T12:33:05.735Z,37.50
2019-02-17T12:34:10.877Z,37.20
2019-02-17T12:35:10.978Z,37.00
2019-02-17T12:36:08.666Z,37.00
2019-02-17T12:37:05.850Z,36.90
2019-02-17T12:38:04.959Z,36.40
2019-02-17T12:39:05.100Z,37.00
2019-02-17T12:40:05.365Z,37.20
2019-02-17T12:41:05.487Z,37.30
2019-02-17T12:42:05.579Z,37.30
2019-02-17T12:43:08.312Z,36.40
2019-02-17T12:44:07.858Z,35.80
2019-02-17T12:45:08.371Z,35.40
2019-02-17T12:46:07.934Z,35.90
2019-02-17T12:47:08.417Z,35.30
2019-02-17T12:48:07.950Z,35.20
2019-02-17T12:49:05.970Z,35.20
2019-02-17T12:50:05.513Z,35.60
2019-02-17T12:51:05.643Z,35.90
2019-02-17T12:52:08.327Z,35.80